sensor_id;sensor_type;location;lat;lon;timestamp;P1;durP1;ratioP1;P2;durP2;ratioP2
11255;SDS011;5685;52.384;13.420;2022-09-12T00:02:34;12.10;;;11.40;;
11255;SDS011;5685;52.384;13.420;2022-09-12T00:05:39;12.33;;;11.47;;
11255;SDS011;5685;52.384;13.420;2022-09-12T00:08:43;12.40;;;11.60;;
11255;SDS011;5685;52.384;13.420;2022-09-12T00:11:47;12.40;;;11.70;;
11255;SDS011;5685;52.384;13.420;2022-09-12T00:14:49;12.20;;;11.50;;
11255;SDS011;5685;52.384;13.420;2022-09-12T00:17:51;11.87;;;11.07;;
11255;SDS011;5685;52.384;13.420;2022-09-12T00:20:53;12.17;;;11.47;;
11255;SDS011;5685;52.384;13.420;2022-09-12T00:23:56;12.40;;;11.60;;
11255;SDS011;5685;52.384;13.420;2022-09-12T00:27:00;11.60;;;10.90;;
11255;SDS011;5685;52.384;13.420;2022-09-12T00:30:02;12.30;;;11.60;;
11255;SDS011;5685;52.384;13.420;2022-09-12T00:33:05;11.70;;;11.00;;
11255;SDS011;5685;52.384;13.420;2022-09-12T00:36:09;11.90;;;11.23;;
11255;SDS011;5685;52.384;13.420;2022-09-12T00:39:14;12.20;;;11.50;;
11255;SDS011;5685;52.384;13.420;2022-09-12T00:42:18;12.10;;;11.40;;
11255;SDS011;5685;52.384;13.420;2022-09-12T00:45:22;11.50;;;10.80;;
11255;SDS011;5685;52.384;13.420;2022-09-12T00:48:31;11.93;;;11.13;;
11255;SDS011;5685;52.384;13.420;2022-09-12T00:51:39;12.47;;;11.77;;
11255;SDS011;5685;52.384;13.420;2022-09-12T00:54:46;11.43;;;10.83;;
11255;SDS011;5685;52.384;13.420;2022-09-12T00:57:56;12.17;;;11.47;;
11255;SDS011;5685;52.384;13.420;2022-09-12T01:01:02;11.37;;;10.77;;
11255;SDS011;5685;52.384;13.420;2022-09-12T01:04:05;11.80;;;11.10;;
11255;SDS011;5685;52.384;13.420;2022-09-12T01:07:07;12.03;;;11.30;;
11255;SDS011;5685;52.384;13.420;2022-09-12T01:10:10;12.13;;;11.43;;
11255;SDS011;5685;52.384;13.420;2022-09-12T01:13:13;12.03;;;11.33;;
11255;SDS011;5685;52.384;13.420;2022-09-12T01:16:16;11.80;;;11.10;;
11255;SDS011;5685;52.384;13.420;2022-09-12T01:19:24;12.60;;;11.90;;
11255;SDS011;5685;52.384;13.420;2022-09-12T01:23:21;12.10;;;11.40;;
11255;SDS011;5685;52.384;13.420;2022-09-12T01:27:11;11.47;;;10.87;;
11255;SDS011;5685;52.384;13.420;2022-09-12T01:30:42;11.90;;;11.20;;
11255;SDS011;5685;52.384;13.420;2022-09-12T01:33:49;11.50;;;10.90;;
11255;SDS011;5685;52.384;13.420;2022-09-12T01:37:09;12.57;;;11.77;;
11255;SDS011;5685;52.384;13.420;2022-09-12T01:40:18;11.80;;;11.13;;
11255;SDS011;5685;52.384;13.420;2022-09-12T01:43:31;12.27;;;11.57;;
11255;SDS011;5685;52.384;13.420;2022-09-12T01:46:41;11.33;;;10.73;;
11255;SDS011;5685;52.384;13.420;2022-09-12T01:49:49;12.07;;;11.37;;
11255;SDS011;5685;52.384;13.420;2022-09-12T01:53:00;11.60;;;11.00;;
11255;SDS011;5685;52.384;13.420;2022-09-12T01:56:07;11.77;;;11.17;;
11255;SDS011;5685;52.384;13.420;2022-09-12T01:59:15;11.53;;;10.83;;
11255;SDS011;5685;52.384;13.420;2022-09-12T02:02:24;11.30;;;10.70;;
11255;SDS011;5685;52.384;13.420;2022-09-12T02:05:32;11.27;;;10.67;;
11255;SDS011;5685;52.384;13.420;2022-09-12T02:08:37;11.33;;;10.73;;
11255;SDS011;5685;52.384;13.420;2022-09-12T02:11:46;11.47;;;10.87;;
11255;SDS011;5685;52.384;13.420;2022-09-12T02:14:52;11.47;;;10.87;;
11255;SDS011;5685;52.384;13.420;2022-09-12T02:18:01;11.47;;;10.87;;
11255;SDS011;5685;52.384;13.420;2022-09-12T02:21:05;11.03;;;10.43;;
11255;SDS011;5685;52.384;13.420;2022-09-12T02:24:08;11.70;;;11.10;;
11255;SDS011;5685;52.384;13.420;2022-09-12T02:27:13;11.10;;;10.60;;
11255;SDS011;5685;52.384;13.420;2022-09-12T02:30:18;11.90;;;11.23;;
11255;SDS011;5685;52.384;13.420;2022-09-12T02:33:25;11.07;;;10.47;;
11255;SDS011;5685;52.384;13.420;2022-09-12T02:36:33;11.80;;;11.20;;
11255;SDS011;5685;52.384;13.420;2022-09-12T02:39:46;11.73;;;11.13;;
11255;SDS011;5685;52.384;13.420;2022-09-12T02:42:48;11.50;;;10.90;;
11255;SDS011;5685;52.384;13.420;2022-09-12T02:45:51;11.50;;;10.87;;
11255;SDS011;5685;52.384;13.420;2022-09-12T02:48:55;12.10;;;11.47;;
11255;SDS011;5685;52.384;13.420;2022-09-12T02:51:57;11.17;;;10.57;;
11255;SDS011;5685;52.384;13.420;2022-09-12T02:55:00;11.30;;;10.70;;
11255;SDS011;5685;52.384;13.420;2022-09-12T02:58:05;11.87;;;11.27;;
11255;SDS011;5685;52.384;13.420;2022-09-12T03:01:14;11.43;;;10.87;;
11255;SDS011;5685;52.384;13.420;2022-09-12T03:08:16;11.20;;;10.60;;
11255;SDS011;5685;52.384;13.420;2022-09-12T03:12:03;11.27;;;10.67;;
11255;SDS011;5685;52.384;13.420;2022-09-12T03:15:23;11.00;;;10.43;;
11255;SDS011;5685;52.384;13.420;2022-09-12T03:18:40;11.40;;;10.80;;
11255;SDS011;5685;52.384;13.420;2022-09-12T03:21:56;11.40;;;10.80;;
11255;SDS011;5685;52.384;13.420;2022-09-12T03:25:06;11.70;;;11.10;;
11255;SDS011;5685;52.384;13.420;2022-09-12T03:28:15;10.30;;;9.80;;
11255;SDS011;5685;52.384;13.420;2022-09-12T03:31:19;11.57;;;10.97;;
11255;SDS011;5685;52.384;13.420;2022-09-12T03:34:21;11.33;;;10.73;;
11255;SDS011;5685;52.384;13.420;2022-09-12T03:37:26;11.33;;;10.73;;
11255;SDS011;5685;52.384;13.420;2022-09-12T03:40:29;11.50;;;10.80;;
11255;SDS011;5685;52.384;13.420;2022-09-12T03:43:31;11.30;;;10.80;;
11255;SDS011;5685;52.384;13.420;2022-09-12T03:46:33;11.37;;;10.77;;
11255;SDS011;5685;52.384;13.420;2022-09-12T03:49:35;10.90;;;10.40;;
11255;SDS011;5685;52.384;13.420;2022-09-12T03:52:39;10.70;;;10.20;;
11255;SDS011;5685;52.384;13.420;2022-09-12T03:55:41;11.67;;;11.07;;
11255;SDS011;5685;52.384;13.420;2022-09-12T03:58:44;11.83;;;11.23;;
11255;SDS011;5685;52.384;13.420;2022-09-12T04:01:46;11.23;;;10.63;;
11255;SDS011;5685;52.384;13.420;2022-09-12T04:04:48;11.83;;;11.23;;
11255;SDS011;5685;52.384;13.420;2022-09-12T04:07:52;11.27;;;10.67;;
11255;SDS011;5685;52.384;13.420;2022-09-12T04:11:00;11.27;;;10.67;;
11255;SDS011;5685;52.384;13.420;2022-09-12T04:14:03;10.80;;;10.30;;
11255;SDS011;5685;52.384;13.420;2022-09-12T04:17:06;11.70;;;11.10;;
11255;SDS011;5685;52.384;13.420;2022-09-12T04:20:08;10.70;;;9.97;;
11255;SDS011;5685;52.384;13.420;2022-09-12T04:23:12;10.97;;;10.37;;
11255;SDS011;5685;52.384;13.420;2022-09-12T04:26:15;11.03;;;10.53;;
11255;SDS011;5685;52.384;13.420;2022-09-12T04:29:18;11.30;;;10.70;;
11255;SDS011;5685;52.384;13.420;2022-09-12T04:32:21;10.50;;;10.00;;
11255;SDS011;5685;52.384;13.420;2022-09-12T04:35:23;11.10;;;10.60;;
11255;SDS011;5685;52.384;13.420;2022-09-12T04:38:27;10.97;;;10.37;;
11255;SDS011;5685;52.384;13.420;2022-09-12T04:41:30;10.67;;;10.17;;
11255;SDS011;5685;52.384;13.420;2022-09-12T04:44:34;11.03;;;10.53;;
11255;SDS011;5685;52.384;13.420;2022-09-12T04:47:36;11.37;;;10.77;;
11255;SDS011;5685;52.384;13.420;2022-09-12T04:50:39;11.50;;;10.90;;
11255;SDS011;5685;52.384;13.420;2022-09-12T04:53:42;11.17;;;10.63;;
11255;SDS011;5685;52.384;13.420;2022-09-12T04:56:49;11.13;;;10.53;;
11255;SDS011;5685;52.384;13.420;2022-09-12T04:59:53;10.80;;;10.30;;
11255;SDS011;5685;52.384;13.420;2022-09-12T05:02:56;10.97;;;10.40;;
11255;SDS011;5685;52.384;13.420;2022-09-12T05:05:58;11.27;;;10.67;;
11255;SDS011;5685;52.384;13.420;2022-09-12T05:09:04;10.77;;;10.17;;
11255;SDS011;5685;52.384;13.420;2022-09-12T05:12:08;11.20;;;10.70;;
11255;SDS011;5685;52.384;13.420;2022-09-12T05:15:10;10.80;;;10.30;;
11255;SDS011;5685;52.384;13.420;2022-09-12T05:18:12;11.17;;;10.63;;
11255;SDS011;5685;52.384;13.420;2022-09-12T05:21:15;11.60;;;11.00;;
11255;SDS011;5685;52.384;13.420;2022-09-12T05:24:21;11.57;;;10.97;;
11255;SDS011;5685;52.384;13.420;2022-09-12T05:27:24;10.83;;;10.23;;
11255;SDS011;5685;52.384;13.420;2022-09-12T05:30:26;11.40;;;10.80;;
11255;SDS011;5685;52.384;13.420;2022-09-12T05:33:29;10.93;;;10.27;;
11255;SDS011;5685;52.384;13.420;2022-09-12T05:36:32;11.27;;;10.77;;
11255;SDS011;5685;52.384;13.420;2022-09-12T05:39:37;11.37;;;10.77;;
11255;SDS011;5685;52.384;13.420;2022-09-12T05:42:39;11.50;;;10.90;;
11255;SDS011;5685;52.384;13.420;2022-09-12T05:45:41;10.40;;;9.90;;
11255;SDS011;5685;52.384;13.420;2022-09-12T05:48:44;10.47;;;9.97;;
11255;SDS011;5685;52.384;13.420;2022-09-12T05:51:48;10.23;;;9.73;;
11255;SDS011;5685;52.384;13.420;2022-09-12T05:54:52;11.23;;;10.63;;
11255;SDS011;5685;52.384;13.420;2022-09-12T05:57:54;10.90;;;10.30;;
11255;SDS011;5685;52.384;13.420;2022-09-12T06:01:00;10.50;;;10.00;;
11255;SDS011;5685;52.384;13.420;2022-09-12T06:04:05;10.33;;;9.83;;
11255;SDS011;5685;52.384;13.420;2022-09-12T06:07:07;10.40;;;9.80;;
11255;SDS011;5685;52.384;13.420;2022-09-12T06:10:11;10.97;;;10.37;;
11255;SDS011;5685;52.384;13.420;2022-09-12T06:13:15;10.83;;;10.30;;
11255;SDS011;5685;52.384;13.420;2022-09-12T06:16:18;10.83;;;10.23;;
11255;SDS011;5685;52.384;13.420;2022-09-12T06:19:23;11.30;;;10.40;;
11255;SDS011;5685;52.384;13.420;2022-09-12T06:22:27;10.93;;;10.33;;
11255;SDS011;5685;52.384;13.420;2022-09-12T06:25:30;10.60;;;10.10;;
11255;SDS011;5685;52.384;13.420;2022-09-12T06:28:33;10.67;;;10.10;;
11255;SDS011;5685;52.384;13.420;2022-09-12T06:31:38;10.70;;;10.00;;
11255;SDS011;5685;52.384;13.420;2022-09-12T06:34:42;10.33;;;9.83;;
11255;SDS011;5685;52.384;13.420;2022-09-12T06:37:47;10.47;;;9.77;;
11255;SDS011;5685;52.384;13.420;2022-09-12T06:40:51;10.13;;;9.63;;
11255;SDS011;5685;52.384;13.420;2022-09-12T06:43:53;11.43;;;10.37;;
11255;SDS011;5685;52.384;13.420;2022-09-12T06:46:56;10.93;;;10.40;;
11255;SDS011;5685;52.384;13.420;2022-09-12T06:49:58;10.83;;;10.23;;
11255;SDS011;5685;52.384;13.420;2022-09-12T06:53:00;10.87;;;10.27;;
11255;SDS011;5685;52.384;13.420;2022-09-12T06:56:04;11.10;;;10.50;;
11255;SDS011;5685;52.384;13.420;2022-09-12T06:59:09;10.70;;;10.20;;
11255;SDS011;5685;52.384;13.420;2022-09-12T07:02:12;10.70;;;10.20;;
11255;SDS011;5685;52.384;13.420;2022-09-12T07:05:14;11.00;;;10.43;;
11255;SDS011;5685;52.384;13.420;2022-09-12T07:08:16;11.03;;;10.43;;
11255;SDS011;5685;52.384;13.420;2022-09-12T07:11:20;11.00;;;10.40;;
11255;SDS011;5685;52.384;13.420;2022-09-12T07:14:24;11.70;;;11.10;;
11255;SDS011;5685;52.384;13.420;2022-09-12T07:17:26;11.03;;;10.43;;
11255;SDS011;5685;52.384;13.420;2022-09-12T07:20:28;10.93;;;10.33;;
11255;SDS011;5685;52.384;13.420;2022-09-12T07:23:32;10.93;;;10.43;;
11255;SDS011;5685;52.384;13.420;2022-09-12T07:26:36;10.33;;;9.83;;
11255;SDS011;5685;52.384;13.420;2022-09-12T07:29:39;10.47;;;9.97;;
11255;SDS011;5685;52.384;13.420;2022-09-12T07:32:41;10.80;;;10.20;;
11255;SDS011;5685;52.384;13.420;2022-09-12T07:35:43;10.73;;;10.23;;
11255;SDS011;5685;52.384;13.420;2022-09-12T07:38:46;10.57;;;10.07;;
11255;SDS011;5685;52.384;13.420;2022-09-12T07:41:49;10.60;;;9.73;;
11255;SDS011;5685;52.384;13.420;2022-09-12T07:44:52;9.70;;;9.30;;
11255;SDS011;5685;52.384;13.420;2022-09-12T07:47:54;10.40;;;9.90;;
11255;SDS011;5685;52.384;13.420;2022-09-12T07:50:56;10.27;;;9.77;;
11255;SDS011;5685;52.384;13.420;2022-09-12T07:53:59;10.60;;;10.10;;
11255;SDS011;5685;52.384;13.420;2022-09-12T07:57:04;10.50;;;10.00;;
11255;SDS011;5685;52.384;13.420;2022-09-12T08:00:06;10.13;;;9.63;;
11255;SDS011;5685;52.384;13.420;2022-09-12T08:03:10;11.30;;;10.70;;
11255;SDS011;5685;52.384;13.420;2022-09-12T08:06:12;10.43;;;9.93;;
11255;SDS011;5685;52.384;13.420;2022-09-12T08:09:19;10.27;;;9.77;;
11255;SDS011;5685;52.384;13.420;2022-09-12T08:12:22;9.83;;;9.33;;
11255;SDS011;5685;52.384;13.420;2022-09-12T08:15:24;10.50;;;10.00;;
11255;SDS011;5685;52.384;13.420;2022-09-12T08:18:27;10.90;;;10.30;;
11255;SDS011;5685;52.384;13.420;2022-09-12T08:21:31;10.73;;;10.20;;
11255;SDS011;5685;52.384;13.420;2022-09-12T08:24:34;10.30;;;9.80;;
11255;SDS011;5685;52.384;13.420;2022-09-12T08:27:39;10.13;;;9.53;;
11255;SDS011;5685;52.384;13.420;2022-09-12T08:30:43;10.33;;;9.83;;
11255;SDS011;5685;52.384;13.420;2022-09-12T08:33:45;11.00;;;10.30;;
11255;SDS011;5685;52.384;13.420;2022-09-12T08:36:47;10.40;;;9.90;;
11255;SDS011;5685;52.384;13.420;2022-09-12T08:39:49;10.80;;;10.20;;
11255;SDS011;5685;52.384;13.420;2022-09-12T08:42:56;10.33;;;9.83;;
11255;SDS011;5685;52.384;13.420;2022-09-12T08:46:09;10.10;;;9.60;;
11255;SDS011;5685;52.384;13.420;2022-09-12T08:49:21;9.67;;;9.13;;
11255;SDS011;5685;52.384;13.420;2022-09-12T08:52:30;9.97;;;9.47;;
11255;SDS011;5685;52.384;13.420;2022-09-12T08:55:39;9.73;;;9.23;;
11255;SDS011;5685;52.384;13.420;2022-09-12T08:58:46;10.50;;;10.00;;
11255;SDS011;5685;52.384;13.420;2022-09-12T09:01:48;10.47;;;9.97;;
11255;SDS011;5685;52.384;13.420;2022-09-12T09:04:55;10.60;;;10.10;;
11255;SDS011;5685;52.384;13.420;2022-09-12T09:08:20;11.13;;;10.53;;
11255;SDS011;5685;52.384;13.420;2022-09-12T09:11:41;10.57;;;9.97;;
11255;SDS011;5685;52.384;13.420;2022-09-12T09:15:05;10.67;;;10.17;;
11255;SDS011;5685;52.384;13.420;2022-09-12T09:18:23;9.73;;;9.33;;
11255;SDS011;5685;52.384;13.420;2022-09-12T09:21:31;10.10;;;9.60;;
11255;SDS011;5685;52.384;13.420;2022-09-12T09:24:42;10.27;;;9.77;;
11255;SDS011;5685;52.384;13.420;2022-09-12T09:27:51;11.10;;;10.47;;
11255;SDS011;5685;52.384;13.420;2022-09-12T09:31:01;10.70;;;10.20;;
11255;SDS011;5685;52.384;13.420;2022-09-12T09:34:08;10.40;;;9.90;;
11255;SDS011;5685;52.384;13.420;2022-09-12T09:37:17;10.97;;;10.37;;
11255;SDS011;5685;52.384;13.420;2022-09-12T09:40:22;10.83;;;10.27;;
11255;SDS011;5685;52.384;13.420;2022-09-12T09:43:27;10.40;;;9.80;;
11255;SDS011;5685;52.384;13.420;2022-09-12T09:46:31;10.10;;;9.60;;
11255;SDS011;5685;52.384;13.420;2022-09-12T09:49:34;9.43;;;9.03;;
11255;SDS011;5685;52.384;13.420;2022-09-12T09:52:36;10.40;;;9.77;;
11255;SDS011;5685;52.384;13.420;2022-09-12T09:55:40;10.83;;;10.33;;
11255;SDS011;5685;52.384;13.420;2022-09-12T09:58:44;9.70;;;9.20;;
11255;SDS011;5685;52.384;13.420;2022-09-12T10:01:49;10.20;;;9.70;;
11255;SDS011;5685;52.384;13.420;2022-09-12T10:04:55;10.90;;;10.40;;
11255;SDS011;5685;52.384;13.420;2022-09-12T10:07:58;10.80;;;10.20;;
11255;SDS011;5685;52.384;13.420;2022-09-12T10:11:02;10.50;;;10.00;;
11255;SDS011;5685;52.384;13.420;2022-09-12T10:14:17;10.23;;;9.73;;
11255;SDS011;5685;52.384;13.420;2022-09-12T10:17:41;10.37;;;9.80;;
11255;SDS011;5685;52.384;13.420;2022-09-12T10:20:46;9.93;;;9.43;;
11255;SDS011;5685;52.384;13.420;2022-09-12T10:23:50;10.33;;;9.83;;
11255;SDS011;5685;52.384;13.420;2022-09-12T10:27:05;10.30;;;9.80;;
11255;SDS011;5685;52.384;13.420;2022-09-12T10:30:16;10.07;;;9.57;;
11255;SDS011;5685;52.384;13.420;2022-09-12T10:33:22;10.60;;;10.10;;
11255;SDS011;5685;52.384;13.420;2022-09-12T10:36:33;10.80;;;10.27;;
11255;SDS011;5685;52.384;13.420;2022-09-12T10:39:37;10.03;;;9.53;;
11255;SDS011;5685;52.384;13.420;2022-09-12T10:42:40;10.90;;;10.40;;
11255;SDS011;5685;52.384;13.420;2022-09-12T10:45:47;10.40;;;9.90;;
11255;SDS011;5685;52.384;13.420;2022-09-12T10:48:51;10.07;;;9.57;;
11255;SDS011;5685;52.384;13.420;2022-09-12T10:52:20;10.43;;;9.93;;
11255;SDS011;5685;52.384;13.420;2022-09-12T10:55:24;10.53;;;10.03;;
11255;SDS011;5685;52.384;13.420;2022-09-12T10:58:42;10.23;;;9.73;;
11255;SDS011;5685;52.384;13.420;2022-09-12T11:01:59;10.60;;;10.10;;
11255;SDS011;5685;52.384;13.420;2022-09-12T11:05:06;10.60;;;10.10;;
11255;SDS011;5685;52.384;13.420;2022-09-12T11:08:18;11.00;;;10.40;;
11255;SDS011;5685;52.384;13.420;2022-09-12T11:11:48;10.43;;;9.93;;
11255;SDS011;5685;52.384;13.420;2022-09-12T11:15:08;10.27;;;9.73;;
11255;SDS011;5685;52.384;13.420;2022-09-12T11:18:36;10.40;;;9.90;;
11255;SDS011;5685;52.384;13.420;2022-09-12T11:22:08;10.20;;;9.70;;
11255;SDS011;5685;52.384;13.420;2022-09-12T11:25:27;10.17;;;9.67;;
11255;SDS011;5685;52.384;13.420;2022-09-12T11:28:35;10.57;;;10.07;;
11255;SDS011;5685;52.384;13.420;2022-09-12T11:32:06;10.57;;;10.07;;
11255;SDS011;5685;52.384;13.420;2022-09-12T11:35:24;10.07;;;9.57;;
11255;SDS011;5685;52.384;13.420;2022-09-12T11:38:34;9.83;;;9.33;;
11255;SDS011;5685;52.384;13.420;2022-09-12T11:41:51;10.40;;;9.90;;
11255;SDS011;5685;52.384;13.420;2022-09-12T11:45:01;9.90;;;9.40;;
11255;SDS011;5685;52.384;13.420;2022-09-12T11:48:15;10.80;;;10.30;;
11255;SDS011;5685;52.384;13.420;2022-09-12T11:51:28;10.30;;;9.67;;
11255;SDS011;5685;52.384;13.420;2022-09-12T11:54:40;10.70;;;10.10;;
11255;SDS011;5685;52.384;13.420;2022-09-12T11:57:47;9.63;;;9.13;;
11255;SDS011;5685;52.384;13.420;2022-09-12T12:00:54;10.83;;;10.23;;
11255;SDS011;5685;52.384;13.420;2022-09-12T12:04:11;10.20;;;9.70;;
11255;SDS011;5685;52.384;13.420;2022-09-12T12:07:16;10.23;;;9.73;;
11255;SDS011;5685;52.384;13.420;2022-09-12T12:10:29;10.37;;;9.77;;
11255;SDS011;5685;52.384;13.420;2022-09-12T12:13:37;10.70;;;10.20;;
11255;SDS011;5685;52.384;13.420;2022-09-12T12:16:46;10.00;;;9.50;;
11255;SDS011;5685;52.384;13.420;2022-09-12T12:19:55;10.17;;;9.67;;
11255;SDS011;5685;52.384;13.420;2022-09-12T12:23:00;10.03;;;9.53;;
11255;SDS011;5685;52.384;13.420;2022-09-12T12:26:03;10.50;;;10.00;;
11255;SDS011;5685;52.384;13.420;2022-09-12T12:29:07;10.47;;;9.97;;
11255;SDS011;5685;52.384;13.420;2022-09-12T12:32:22;10.47;;;9.97;;
11255;SDS011;5685;52.384;13.420;2022-09-12T12:35:36;10.57;;;10.07;;
11255;SDS011;5685;52.384;13.420;2022-09-12T12:38:40;10.03;;;9.53;;
11255;SDS011;5685;52.384;13.420;2022-09-12T12:41:44;10.40;;;9.90;;
11255;SDS011;5685;52.384;13.420;2022-09-12T12:44:47;10.80;;;10.30;;
11255;SDS011;5685;52.384;13.420;2022-09-12T12:47:51;10.80;;;10.27;;
11255;SDS011;5685;52.384;13.420;2022-09-12T12:54:55;10.07;;;9.57;;
11255;SDS011;5685;52.384;13.420;2022-09-12T12:58:01;9.97;;;9.47;;
11255;SDS011;5685;52.384;13.420;2022-09-12T13:01:09;10.20;;;9.70;;
11255;SDS011;5685;52.384;13.420;2022-09-12T13:04:16;9.47;;;8.97;;
11255;SDS011;5685;52.384;13.420;2022-09-12T13:07:24;10.10;;;9.60;;
11255;SDS011;5685;52.384;13.420;2022-09-12T13:10:31;10.37;;;9.77;;
11255;SDS011;5685;52.384;13.420;2022-09-12T13:13:37;11.13;;;10.53;;
11255;SDS011;5685;52.384;13.420;2022-09-12T13:16:51;10.60;;;10.10;;
11255;SDS011;5685;52.384;13.420;2022-09-12T13:20:01;10.10;;;9.60;;
11255;SDS011;5685;52.384;13.420;2022-09-12T13:23:23;10.73;;;10.17;;
11255;SDS011;5685;52.384;13.420;2022-09-12T13:26:32;10.27;;;9.70;;
11255;SDS011;5685;52.384;13.420;2022-09-12T13:29:37;10.77;;;10.27;;
11255;SDS011;5685;52.384;13.420;2022-09-12T13:32:40;10.63;;;10.13;;
11255;SDS011;5685;52.384;13.420;2022-09-12T13:35:57;10.70;;;10.10;;
11255;SDS011;5685;52.384;13.420;2022-09-12T13:39:16;10.53;;;9.83;;
11255;SDS011;5685;52.384;13.420;2022-09-12T13:45:44;10.63;;;10.03;;
11255;SDS011;5685;52.384;13.420;2022-09-12T13:48:47;10.97;;;10.27;;
11255;SDS011;5685;52.384;13.420;2022-09-12T13:51:55;11.43;;;10.70;;
11255;SDS011;5685;52.384;13.420;2022-09-12T13:55:04;10.93;;;10.30;;
11255;SDS011;5685;52.384;13.420;2022-09-12T13:58:18;10.90;;;10.30;;
11255;SDS011;5685;52.384;13.420;2022-09-12T14:01:36;10.90;;;10.00;;
11255;SDS011;5685;52.384;13.420;2022-09-12T14:04:40;10.43;;;9.90;;
11255;SDS011;5685;52.384;13.420;2022-09-12T14:08:05;10.73;;;10.07;;
11255;SDS011;5685;52.384;13.420;2022-09-12T14:11:09;11.17;;;10.40;;
11255;SDS011;5685;52.384;13.420;2022-09-12T14:14:17;10.73;;;10.10;;
11255;SDS011;5685;52.384;13.420;2022-09-12T14:17:32;10.30;;;9.80;;
11255;SDS011;5685;52.384;13.420;2022-09-12T14:20:37;10.60;;;9.90;;
11255;SDS011;5685;52.384;13.420;2022-09-12T14:23:41;10.67;;;10.00;;
11255;SDS011;5685;52.384;13.420;2022-09-12T14:26:47;10.47;;;9.43;;
11255;SDS011;5685;52.384;13.420;2022-09-12T14:29:50;10.90;;;10.30;;
11255;SDS011;5685;52.384;13.420;2022-09-12T14:33:15;10.37;;;9.73;;
11255;SDS011;5685;52.384;13.420;2022-09-12T14:36:22;11.93;;;11.03;;
11255;SDS011;5685;52.384;13.420;2022-09-12T14:39:28;11.03;;;10.23;;
11255;SDS011;5685;52.384;13.420;2022-09-12T14:42:34;10.63;;;9.63;;
11255;SDS011;5685;52.384;13.420;2022-09-12T14:45:36;11.00;;;10.40;;
11255;SDS011;5685;52.384;13.420;2022-09-12T14:48:42;10.47;;;9.93;;
11255;SDS011;5685;52.384;13.420;2022-09-12T14:51:52;10.80;;;10.30;;
11255;SDS011;5685;52.384;13.420;2022-09-12T14:54:59;11.20;;;10.40;;
11255;SDS011;5685;52.384;13.420;2022-09-12T14:58:06;10.83;;;10.23;;
11255;SDS011;5685;52.384;13.420;2022-09-12T15:01:21;11.27;;;10.67;;
11255;SDS011;5685;52.384;13.420;2022-09-12T15:04:39;11.20;;;10.53;;
11255;SDS011;5685;52.384;13.420;2022-09-12T15:07:44;11.37;;;10.77;;
11255;SDS011;5685;52.384;13.420;2022-09-12T15:10:54;10.37;;;9.87;;
11255;SDS011;5685;52.384;13.420;2022-09-12T15:13:57;11.27;;;10.60;;
11255;SDS011;5685;52.384;13.420;2022-09-12T15:16:59;10.93;;;10.33;;
11255;SDS011;5685;52.384;13.420;2022-09-12T15:20:03;11.60;;;10.80;;
11255;SDS011;5685;52.384;13.420;2022-09-12T15:23:09;10.60;;;10.10;;
11255;SDS011;5685;52.384;13.420;2022-09-12T15:26:18;10.80;;;10.20;;
11255;SDS011;5685;52.384;13.420;2022-09-12T15:29:23;11.17;;;10.50;;
11255;SDS011;5685;52.384;13.420;2022-09-12T15:32:25;10.20;;;9.60;;
11255;SDS011;5685;52.384;13.420;2022-09-12T15:35:31;10.80;;;10.23;;
11255;SDS011;5685;52.384;13.420;2022-09-12T15:38:34;11.50;;;10.70;;
11255;SDS011;5685;52.384;13.420;2022-09-12T15:41:36;10.97;;;10.27;;
11255;SDS011;5685;52.384;13.420;2022-09-12T15:44:39;11.30;;;10.50;;
11255;SDS011;5685;52.384;13.420;2022-09-12T15:47:42;11.63;;;10.87;;
11255;SDS011;5685;52.384;13.420;2022-09-12T15:50:46;11.30;;;10.60;;
11255;SDS011;5685;52.384;13.420;2022-09-12T15:53:49;11.40;;;10.60;;
11255;SDS011;5685;52.384;13.420;2022-09-12T15:56:51;11.03;;;10.33;;
11255;SDS011;5685;52.384;13.420;2022-09-12T15:59:54;11.17;;;10.47;;
11255;SDS011;5685;52.384;13.420;2022-09-12T16:02:56;10.93;;;10.37;;
11255;SDS011;5685;52.384;13.420;2022-09-12T16:06:00;11.13;;;10.53;;
11255;SDS011;5685;52.384;13.420;2022-09-12T16:09:03;10.80;;;10.30;;
11255;SDS011;5685;52.384;13.420;2022-09-12T16:12:05;11.00;;;10.20;;
11255;SDS011;5685;52.384;13.420;2022-09-12T16:15:10;10.93;;;10.30;;
11255;SDS011;5685;52.384;13.420;2022-09-12T16:18:14;11.00;;;10.30;;
11255;SDS011;5685;52.384;13.420;2022-09-12T16:21:18;11.00;;;10.40;;
11255;SDS011;5685;52.384;13.420;2022-09-12T16:24:20;11.00;;;10.30;;
11255;SDS011;5685;52.384;13.420;2022-09-12T16:27:22;10.70;;;10.20;;
11255;SDS011;5685;52.384;13.420;2022-09-12T16:30:24;10.93;;;10.33;;
11255;SDS011;5685;52.384;13.420;2022-09-12T16:33:27;11.67;;;10.80;;
11255;SDS011;5685;52.384;13.420;2022-09-12T16:36:32;11.30;;;10.70;;
11255;SDS011;5685;52.384;13.420;2022-09-12T16:39:35;11.20;;;10.60;;
11255;SDS011;5685;52.384;13.420;2022-09-12T16:42:37;11.33;;;10.73;;
11255;SDS011;5685;52.384;13.420;2022-09-12T16:45:39;10.87;;;10.23;;
11255;SDS011;5685;52.384;13.420;2022-09-12T16:48:41;10.67;;;10.17;;
11255;SDS011;5685;52.384;13.420;2022-09-12T16:51:46;10.83;;;10.30;;
11255;SDS011;5685;52.384;13.420;2022-09-12T16:54:49;10.17;;;9.67;;
11255;SDS011;5685;52.384;13.420;2022-09-12T16:57:51;10.90;;;10.30;;
11255;SDS011;5685;52.384;13.420;2022-09-12T17:00:58;10.27;;;9.67;;
11255;SDS011;5685;52.384;13.420;2022-09-12T17:04:01;11.03;;;10.27;;
11255;SDS011;5685;52.384;13.420;2022-09-12T17:07:05;11.03;;;10.53;;
11255;SDS011;5685;52.384;13.420;2022-09-12T17:10:09;11.30;;;10.80;;
11255;SDS011;5685;52.384;13.420;2022-09-12T17:13:11;10.93;;;10.43;;
11255;SDS011;5685;52.384;13.420;2022-09-12T17:16:13;10.50;;;10.00;;
11255;SDS011;5685;52.384;13.420;2022-09-12T17:19:17;10.93;;;10.33;;
11255;SDS011;5685;52.384;13.420;2022-09-12T17:22:22;10.53;;;9.77;;
11255;SDS011;5685;52.384;13.420;2022-09-12T17:25:24;10.67;;;10.17;;
11255;SDS011;5685;52.384;13.420;2022-09-12T17:28:26;11.03;;;10.53;;
11255;SDS011;5685;52.384;13.420;2022-09-12T17:31:29;10.70;;;10.20;;
11255;SDS011;5685;52.384;13.420;2022-09-12T17:34:31;11.30;;;10.60;;
11255;SDS011;5685;52.384;13.420;2022-09-12T17:37:35;11.00;;;10.50;;
11255;SDS011;5685;52.384;13.420;2022-09-12T17:40:37;10.50;;;10.00;;
11255;SDS011;5685;52.384;13.420;2022-09-12T17:43:39;10.70;;;10.10;;
11255;SDS011;5685;52.384;13.420;2022-09-12T17:46:42;11.17;;;10.57;;
11255;SDS011;5685;52.384;13.420;2022-09-12T17:49:44;11.70;;;11.10;;
11255;SDS011;5685;52.384;13.420;2022-09-12T17:52:48;12.00;;;11.40;;
11255;SDS011;5685;52.384;13.420;2022-09-12T17:55:50;12.67;;;11.97;;
11255;SDS011;5685;52.384;13.420;2022-09-12T17:58:53;13.13;;;12.33;;
11255;SDS011;5685;52.384;13.420;2022-09-12T18:01:56;33.53;;;21.40;;
11255;SDS011;5685;52.384;13.420;2022-09-12T18:05:15;34.73;;;23.20;;
11255;SDS011;5685;52.384;13.420;2022-09-12T18:08:18;33.10;;;20.80;;
11255;SDS011;5685;52.384;13.420;2022-09-12T18:11:21;25.17;;;19.67;;
11255;SDS011;5685;52.384;13.420;2022-09-12T18:14:23;21.07;;;17.67;;
11255;SDS011;5685;52.384;13.420;2022-09-12T18:17:26;26.03;;;17.80;;
11255;SDS011;5685;52.384;13.420;2022-09-12T18:20:29;25.67;;;21.60;;
11255;SDS011;5685;52.384;13.420;2022-09-12T18:23:32;32.70;;;22.80;;
11255;SDS011;5685;52.384;13.420;2022-09-12T18:26:35;39.43;;;22.40;;
11255;SDS011;5685;52.384;13.420;2022-09-12T18:29:37;31.03;;;21.13;;